sensor_id;sensor_type;location;lat;lon;timestamp;P1;durP1;ratioP1;P2;durP2;ratioP2
16401;SDS011;8310;44.626;11.176;2024-02-15T00:00:05;26.87;;;16.77;;
16401;SDS011;8310;44.626;11.176;2024-02-15T00:02:33;23.87;;;16.77;;
16401;SDS011;8310;44.626;11.176;2024-02-15T00:05:00;23.73;;;16.42;;
16401;SDS011;8310;44.626;11.176;2024-02-15T00:07:28;23.65;;;17.30;;
16401;SDS011;8310;44.626;11.176;2024-02-15T00:09:57;24.13;;;16.92;;
16401;SDS011;8310;44.626;11.176;2024-02-15T00:12:24;25.90;;;17.05;;
16401;SDS011;8310;44.626;11.176;2024-02-15T00:14:52;25.35;;;17.27;;
16401;SDS011;8310;44.626;11.176;2024-02-15T00:17:23;26.33;;;17.65;;
16401;SDS011;8310;44.626;11.176;2024-02-15T00:19:51;25.83;;;17.40;;
16401;SDS011;8310;44.626;11.176;2024-02-15T00:22:19;23.13;;;16.60;;
16401;SDS011;8310;44.626;11.176;2024-02-15T00:24:47;22.35;;;16.15;;
16401;SDS011;8310;44.626;11.176;2024-02-15T00:27:17;21.98;;;16.02;;
16401;SDS011;8310;44.626;11.176;2024-02-15T00:29:45;24.25;;;17.45;;
16401;SDS011;8310;44.626;11.176;2024-02-15T00:32:13;26.00;;;16.70;;
16401;SDS011;8310;44.626;11.176;2024-02-15T00:34:41;23.88;;;17.52;;
16401;SDS011;8310;44.626;11.176;2024-02-15T00:37:09;25.02;;;16.98;;
16401;SDS011;8310;44.626;11.176;2024-02-15T00:39:36;23.80;;;16.35;;
16401;SDS011;8310;44.626;11.176;2024-02-15T00:42:04;23.95;;;15.85;;
16401;SDS011;8310;44.626;11.176;2024-02-15T00:44:35;25.00;;;15.57;;
16401;SDS011;8310;44.626;11.176;2024-02-15T00:47:03;24.38;;;16.35;;
16401;SDS011;8310;44.626;11.176;2024-02-15T00:49:31;21.00;;;15.60;;
16401;SDS011;8310;44.626;11.176;2024-02-15T00:51:59;21.83;;;16.27;;
16401;SDS011;8310;44.626;11.176;2024-02-15T00:54:27;23.35;;;17.05;;
16401;SDS011;8310;44.626;11.176;2024-02-15T00:56:54;26.08;;;16.17;;
16401;SDS011;8310;44.626;11.176;2024-02-15T00:59:22;22.70;;;15.52;;
16401;SDS011;8310;44.626;11.176;2024-02-15T01:01:51;22.73;;;15.73;;
16401;SDS011;8310;44.626;11.176;2024-02-15T01:04:19;24.25;;;15.93;;
16401;SDS011;8310;44.626;11.176;2024-02-15T01:06:46;26.92;;;17.00;;
16401;SDS011;8310;44.626;11.176;2024-02-15T01:20:47;21.42;;;15.35;;
16401;SDS011;8310;44.626;11.176;2024-02-15T01:23:15;20.53;;;14.67;;
16401;SDS011;8310;44.626;11.176;2024-02-15T01:25:43;21.42;;;14.50;;
16401;SDS011;8310;44.626;11.176;2024-02-15T01:28:11;19.92;;;14.07;;
16401;SDS011;8310;44.626;11.176;2024-02-15T01:38:31;19.50;;;15.00;;
16401;SDS011;8310;44.626;11.176;2024-02-15T02:13:02;22.00;;;13.95;;
16401;SDS011;8310;44.626;11.176;2024-02-15T02:15:32;21.17;;;14.48;;
16401;SDS011;8310;44.626;11.176;2024-02-15T06:03:05;14.50;;;9.73;;
16401;SDS011;8310;44.626;11.176;2024-02-15T06:08:23;17.42;;;10.80;;
16401;SDS011;8310;44.626;11.176;2024-02-15T06:10:51;16.33;;;10.40;;
16401;SDS011;8310;44.626;11.176;2024-02-15T06:25:08;15.50;;;10.50;;
16401;SDS011;8310;44.626;11.176;2024-02-15T07:26:28;16.50;;;10.05;;
16401;SDS011;8310;44.626;11.176;2024-02-15T07:28:56;15.98;;;10.23;;
16401;SDS011;8310;44.626;11.176;2024-02-15T07:31:27;21.33;;;10.48;;
16401;SDS011;8310;44.626;11.176;2024-02-15T07:33:56;15.73;;;9.45;;
16401;SDS011;8310;44.626;11.176;2024-02-15T07:36:24;16.63;;;10.13;;
16401;SDS011;8310;44.626;11.176;2024-02-15T07:38:52;23.17;;;9.67;;
16401;SDS011;8310;44.626;11.176;2024-02-15T07:41:23;16.55;;;9.77;;
16401;SDS011;8310;44.626;11.176;2024-02-15T07:43:52;16.52;;;9.32;;
16401;SDS011;8310;44.626;11.176;2024-02-15T07:46:24;15.15;;;8.65;;
16401;SDS011;8310;44.626;11.176;2024-02-15T07:48:51;39.60;;;8.90;;
16401;SDS011;8310;44.626;11.176;2024-02-15T07:51:22;10.32;;;6.65;;
16401;SDS011;8310;44.626;11.176;2024-02-15T07:53:51;18.43;;;7.20;;
16401;SDS011;8310;44.626;11.176;2024-02-15T07:56:19;14.75;;;8.23;;
16401;SDS011;8310;44.626;11.176;2024-02-15T07:58:48;13.48;;;8.70;;
16401;SDS011;8310;44.626;11.176;2024-02-15T08:01:18;14.03;;;8.77;;
16401;SDS011;8310;44.626;11.176;2024-02-15T08:03:48;14.27;;;8.00;;
16401;SDS011;8310;44.626;11.176;2024-02-15T08:06:15;13.00;;;8.32;;
16401;SDS011;8310;44.626;11.176;2024-02-15T08:08:47;14.57;;;8.82;;
16401;SDS011;8310;44.626;11.176;2024-02-15T08:11:16;17.63;;;8.95;;
16401;SDS011;8310;44.626;11.176;2024-02-15T08:13:44;15.30;;;9.43;;
16401;SDS011;8310;44.626;11.176;2024-02-15T08:16:13;26.58;;;9.43;;
16401;SDS011;8310;44.626;11.176;2024-02-15T08:18:44;16.80;;;9.30;;
16401;SDS011;8310;44.626;11.176;2024-02-15T08:21:12;14.55;;;9.45;;
16401;SDS011;8310;44.626;11.176;2024-02-15T08:23:40;13.07;;;9.20;;
16401;SDS011;8310;44.626;11.176;2024-02-15T08:26:08;16.63;;;10.98;;
16401;SDS011;8310;44.626;11.176;2024-02-15T08:28:37;15.90;;;11.03;;
16401;SDS011;8310;44.626;11.176;2024-02-15T08:31:05;16.33;;;11.43;;
16401;SDS011;8310;44.626;11.176;2024-02-15T08:33:43;17.23;;;9.70;;
16401;SDS011;8310;44.626;11.176;2024-02-15T08:36:12;16.90;;;10.90;;
16401;SDS011;8310;44.626;11.176;2024-02-15T08:38:40;18.77;;;11.40;;
16401;SDS011;8310;44.626;11.176;2024-02-15T08:41:09;16.58;;;11.90;;
16401;SDS011;8310;44.626;11.176;2024-02-15T08:43:46;17.13;;;11.93;;
16401;SDS011;8310;44.626;11.176;2024-02-15T08:46:15;18.58;;;11.07;;
16401;SDS011;8310;44.626;11.176;2024-02-15T08:48:44;16.77;;;11.63;;
16401;SDS011;8310;44.626;11.176;2024-02-15T08:51:12;19.73;;;11.05;;
16401;SDS011;8310;44.626;11.176;2024-02-15T08:53:40;17.87;;;10.90;;
16401;SDS011;8310;44.626;11.176;2024-02-15T08:56:09;15.02;;;10.80;;
16401;SDS011;8310;44.626;11.176;2024-02-15T08:58:37;16.92;;;10.70;;
16401;SDS011;8310;44.626;11.176;2024-02-15T09:01:05;17.50;;;11.77;;
16401;SDS011;8310;44.626;11.176;2024-02-15T09:03:33;18.88;;;12.05;;
16401;SDS011;8310;44.626;11.176;2024-02-15T09:06:03;17.70;;;11.83;;
16401;SDS011;8310;44.626;11.176;2024-02-15T09:08:32;17.70;;;11.77;;
16401;SDS011;8310;44.626;11.176;2024-02-15T09:11:00;17.37;;;10.87;;
16401;SDS011;8310;44.626;11.176;2024-02-15T09:13:28;19.57;;;11.30;;
16401;SDS011;8310;44.626;11.176;2024-02-15T09:15:58;17.70;;;11.90;;
16401;SDS011;8310;44.626;11.176;2024-02-15T09:18:26;16.85;;;11.77;;
16401;SDS011;8310;44.626;11.176;2024-02-15T09:20:54;17.83;;;12.23;;
16401;SDS011;8310;44.626;11.176;2024-02-15T09:23:23;17.88;;;11.30;;
16401;SDS011;8310;44.626;11.176;2024-02-15T09:25:51;20.42;;;12.48;;
16401;SDS011;8310;44.626;11.176;2024-02-15T09:28:19;18.05;;;11.88;;
16401;SDS011;8310;44.626;11.176;2024-02-15T09:30:47;18.95;;;12.57;;
16401;SDS011;8310;44.626;11.176;2024-02-15T09:33:17;18.83;;;12.32;;
16401;SDS011;8310;44.626;11.176;2024-02-15T09:35:46;16.25;;;12.27;;
16401;SDS011;8310;44.626;11.176;2024-02-15T09:38:13;17.75;;;12.73;;
16401;SDS011;8310;44.626;11.176;2024-02-15T09:40:47;21.83;;;12.00;;
16401;SDS011;8310;44.626;11.176;2024-02-15T09:43:16;20.63;;;12.70;;
16401;SDS011;8310;44.626;11.176;2024-02-15T09:45:44;20.73;;;13.38;;
16401;SDS011;8310;44.626;11.176;2024-02-15T09:48:13;18.95;;;13.20;;
16401;SDS011;8310;44.626;11.176;2024-02-15T09:50:47;18.35;;;13.18;;
16401;SDS011;8310;44.626;11.176;2024-02-15T09:53:18;20.65;;;13.23;;
16401;SDS011;8310;44.626;11.176;2024-02-15T09:55:50;21.50;;;15.18;;
16401;SDS011;8310;44.626;11.176;2024-02-15T09:58:19;21.33;;;15.50;;
16401;SDS011;8310;44.626;11.176;2024-02-15T10:00:48;23.52;;;16.75;;
16401;SDS011;8310;44.626;11.176;2024-02-15T10:03:18;21.73;;;16.15;;
16401;SDS011;8310;44.626;11.176;2024-02-15T10:05:47;22.27;;;14.68;;
16401;SDS011;8310;44.626;11.176;2024-02-15T10:08:16;21.23;;;16.40;;
16401;SDS011;8310;44.626;11.176;2024-02-15T10:10:44;21.42;;;15.90;;
16401;SDS011;8310;44.626;11.176;2024-02-15T10:13:14;22.23;;;16.55;;
16401;SDS011;8310;44.626;11.176;2024-02-15T10:15:49;23.42;;;16.90;;
16401;SDS011;8310;44.626;11.176;2024-02-15T10:18:17;25.73;;;16.63;;
16401;SDS011;8310;44.626;11.176;2024-02-15T10:20:47;26.42;;;16.92;;
16401;SDS011;8310;44.626;11.176;2024-02-15T10:23:24;24.87;;;16.73;;
16401;SDS011;8310;44.626;11.176;2024-02-15T10:25:51;26.10;;;17.00;;
16401;SDS011;8310;44.626;11.176;2024-02-15T10:28:22;24.40;;;16.85;;
16401;SDS011;8310;44.626;11.176;2024-02-15T10:30:50;23.80;;;15.98;;
16401;SDS011;8310;44.626;11.176;2024-02-15T10:33:18;25.50;;;17.93;;
16401;SDS011;8310;44.626;11.176;2024-02-15T10:35:56;28.00;;;16.60;;
16401;SDS011;8310;44.626;11.176;2024-02-15T10:38:33;25.07;;;17.13;;
16401;SDS011;8310;44.626;11.176;2024-02-15T10:41:02;23.85;;;17.38;;
16401;SDS011;8310;44.626;11.176;2024-02-15T10:43:34;25.52;;;17.73;;
16401;SDS011;8310;44.626;11.176;2024-02-15T10:46:03;24.63;;;17.57;;
16401;SDS011;8310;44.626;11.176;2024-02-15T10:48:33;25.73;;;18.63;;
16401;SDS011;8310;44.626;11.176;2024-02-15T10:51:00;26.65;;;18.27;;
16401;SDS011;8310;44.626;11.176;2024-02-15T10:53:32;27.17;;;18.15;;
16401;SDS011;8310;44.626;11.176;2024-02-15T10:56:08;25.23;;;18.10;;
16401;SDS011;8310;44.626;11.176;2024-02-15T10:58:46;27.33;;;19.23;;
16401;SDS011;8310;44.626;11.176;2024-02-15T11:01:18;27.65;;;19.75;;
16401;SDS011;8310;44.626;11.176;2024-02-15T11:03:58;26.45;;;19.45;;
16401;SDS011;8310;44.626;11.176;2024-02-15T11:06:27;26.25;;;19.08;;
16401;SDS011;8310;44.626;11.176;2024-02-15T11:08:57;28.77;;;20.20;;
16401;SDS011;8310;44.626;11.176;2024-02-15T11:11:25;25.95;;;19.38;;
16401;SDS011;8310;44.626;11.176;2024-02-15T11:16:54;26.92;;;19.88;;
16401;SDS011;8310;44.626;11.176;2024-02-15T11:19:41;27.13;;;20.00;;
16401;SDS011;8310;44.626;11.176;2024-02-15T11:22:12;26.10;;;20.33;;
16401;SDS011;8310;44.626;11.176;2024-02-15T11:24:47;31.80;;;20.30;;
16401;SDS011;8310;44.626;11.176;2024-02-15T11:27:26;26.10;;;19.60;;
16401;SDS011;8310;44.626;11.176;2024-02-15T11:29:56;30.60;;;19.85;;
16401;SDS011;8310;44.626;11.176;2024-02-15T11:32:35;27.90;;;20.73;;
16401;SDS011;8310;44.626;11.176;2024-02-15T11:35:04;28.58;;;20.25;;
16401;SDS011;8310;44.626;11.176;2024-02-15T11:37:55;29.83;;;20.75;;
16401;SDS011;8310;44.626;11.176;2024-02-15T11:40:29;30.70;;;21.00;;
16401;SDS011;8310;44.626;11.176;2024-02-15T11:43:45;28.60;;;20.00;;
16401;SDS011;8310;44.626;11.176;2024-02-15T11:46:16;28.83;;;20.10;;
16401;SDS011;8310;44.626;11.176;2024-02-15T11:48:45;28.48;;;19.13;;
16401;SDS011;8310;44.626;11.176;2024-02-15T11:51:24;29.83;;;20.45;;
16401;SDS011;8310;44.626;11.176;2024-02-15T11:54:02;35.25;;;21.50;;
16401;SDS011;8310;44.626;11.176;2024-02-15T11:56:49;28.58;;;19.63;;
16401;SDS011;8310;44.626;11.176;2024-02-15T11:59:30;32.72;;;20.70;;
16401;SDS011;8310;44.626;11.176;2024-02-15T12:02:19;27.93;;;19.60;;
16401;SDS011;8310;44.626;11.176;2024-02-15T12:05:05;29.83;;;20.55;;
16401;SDS011;8310;44.626;11.176;2024-02-15T12:07:49;31.02;;;20.25;;
16401;SDS011;8310;44.626;11.176;2024-02-15T12:10:34;30.70;;;20.90;;
16401;SDS011;8310;44.626;11.176;2024-02-15T12:13:18;44.10;;;22.30;;
16401;SDS011;8310;44.626;11.176;2024-02-15T12:16:03;29.70;;;20.77;;
16401;SDS011;8310;44.626;11.176;2024-02-15T12:18:50;30.08;;;20.55;;
16401;SDS011;8310;44.626;11.176;2024-02-15T12:21:19;30.57;;;21.23;;
16401;SDS011;8310;44.626;11.176;2024-02-15T12:23:53;29.40;;;19.35;;
16401;SDS011;8310;44.626;11.176;2024-02-15T12:26:21;31.05;;;20.45;;
16401;SDS011;8310;44.626;11.176;2024-02-15T12:28:50;28.90;;;19.65;;
16401;SDS011;8310;44.626;11.176;2024-02-15T12:31:20;29.02;;;20.20;;
16401;SDS011;8310;44.626;11.176;2024-02-15T12:33:59;28.95;;;20.25;;
16401;SDS011;8310;44.626;11.176;2024-02-15T12:36:28;30.60;;;20.67;;
16401;SDS011;8310;44.626;11.176;2024-02-15T12:39:01;31.70;;;20.67;;
16401;SDS011;8310;44.626;11.176;2024-02-15T12:41:28;33.65;;;21.50;;
16401;SDS011;8310;44.626;11.176;2024-02-15T12:43:56;34.03;;;22.25;;
16401;SDS011;8310;44.626;11.176;2024-02-15T12:46:24;31.50;;;22.00;;
16401;SDS011;8310;44.626;11.176;2024-02-15T12:49:07;30.90;;;21.13;;
16401;SDS011;8310;44.626;11.176;2024-02-15T12:51:38;34.35;;;22.88;;
16401;SDS011;8310;44.626;11.176;2024-02-15T12:54:09;35.35;;;24.20;;
16401;SDS011;8310;44.626;11.176;2024-02-15T12:56:40;35.13;;;23.83;;
16401;SDS011;8310;44.626;11.176;2024-02-15T12:59:08;37.10;;;24.10;;
16401;SDS011;8310;44.626;11.176;2024-02-15T13:01:35;34.45;;;22.73;;
16401;SDS011;8310;44.626;11.176;2024-02-15T13:04:03;36.35;;;24.60;;
16401;SDS011;8310;44.626;11.176;2024-02-15T13:06:33;36.22;;;24.08;;
16401;SDS011;8310;44.626;11.176;2024-02-15T13:09:02;36.60;;;24.33;;
16401;SDS011;8310;44.626;11.176;2024-02-15T13:11:31;34.67;;;23.98;;
16401;SDS011;8310;44.626;11.176;2024-02-15T13:13:59;33.97;;;22.45;;
16401;SDS011;8310;44.626;11.176;2024-02-15T13:16:26;36.22;;;25.27;;
16401;SDS011;8310;44.626;11.176;2024-02-15T13:18:56;36.55;;;25.25;;
16401;SDS011;8310;44.626;11.176;2024-02-15T13:21:24;35.22;;;25.55;;
16401;SDS011;8310;44.626;11.176;2024-02-15T13:23:56;38.28;;;25.77;;
16401;SDS011;8310;44.626;11.176;2024-02-15T13:26:25;34.72;;;23.60;;
16401;SDS011;8310;44.626;11.176;2024-02-15T13:28:53;36.75;;;25.52;;
16401;SDS011;8310;44.626;11.176;2024-02-15T13:31:20;38.03;;;25.63;;
16401;SDS011;8310;44.626;11.176;2024-02-15T13:33:48;36.05;;;25.20;;
16401;SDS011;8310;44.626;11.176;2024-02-15T13:36:15;38.60;;;24.65;;
16401;SDS011;8310;44.626;11.176;2024-02-15T13:38:42;32.13;;;23.00;;
16401;SDS011;8310;44.626;11.176;2024-02-15T13:41:11;35.53;;;24.13;;
16401;SDS011;8310;44.626;11.176;2024-02-15T13:43:40;38.20;;;23.33;;
16401;SDS011;8310;44.626;11.176;2024-02-15T13:46:08;37.35;;;24.25;;
16401;SDS011;8310;44.626;11.176;2024-02-15T13:48:36;37.67;;;25.40;;
16401;SDS011;8310;44.626;11.176;2024-02-15T13:51:04;35.40;;;24.92;;
16401;SDS011;8310;44.626;11.176;2024-02-15T13:53:34;36.83;;;25.05;;
16401;SDS011;8310;44.626;11.176;2024-02-15T13:56:02;36.78;;;24.45;;
16401;SDS011;8310;44.626;11.176;2024-02-15T13:58:32;35.90;;;24.67;;
16401;SDS011;8310;44.626;11.176;2024-02-15T14:01:00;34.25;;;24.20;;
16401;SDS011;8310;44.626;11.176;2024-02-15T14:03:29;35.67;;;24.50;;
16401;SDS011;8310;44.626;11.176;2024-02-15T14:05:59;36.75;;;25.13;;
16401;SDS011;8310;44.626;11.176;2024-02-15T14:08:27;34.35;;;24.20;;
16401;SDS011;8310;44.626;11.176;2024-02-15T14:10:55;34.38;;;23.55;;
16401;SDS011;8310;44.626;11.176;2024-02-15T14:13:23;37.50;;;25.35;;
16401;SDS011;8310;44.626;11.176;2024-02-15T14:15:52;35.38;;;24.00;;
16401;SDS011;8310;44.626;11.176;2024-02-15T14:18:21;41.70;;;28.42;;
16401;SDS011;8310;44.626;11.176;2024-02-15T14:20:49;35.00;;;24.70;;
16401;SDS011;8310;44.626;11.176;2024-02-15T14:23:18;37.72;;;25.55;;
16401;SDS011;8310;44.626;11.176;2024-02-15T14:25:47;63.20;;;42.57;;
16401;SDS011;8310;44.626;11.176;2024-02-15T14:28:15;56.33;;;39.10;;
16401;SDS011;8310;44.626;11.176;2024-02-15T14:30:43;42.92;;;30.20;;
16401;SDS011;8310;44.626;11.176;2024-02-15T14:33:37;40.88;;;28.10;;
16401;SDS011;8310;44.626;11.176;2024-02-15T14:36:05;42.85;;;29.48;;
16401;SDS011;8310;44.626;11.176;2024-02-15T14:38:33;42.78;;;29.83;;
16401;SDS011;8310;44.626;11.176;2024-02-15T14:41:00;41.70;;;29.42;;
16401;SDS011;8310;44.626;11.176;2024-02-15T14:43:31;39.65;;;28.50;;
16401;SDS011;8310;44.626;11.176;2024-02-15T14:46:00;40.93;;;28.73;;
16401;SDS011;8310;44.626;11.176;2024-02-15T14:48:30;47.13;;;32.00;;
16401;SDS011;8310;44.626;11.176;2024-02-15T14:51:00;47.47;;;32.85;;
16401;SDS011;8310;44.626;11.176;2024-02-15T14:53:28;41.63;;;28.67;;
16401;SDS011;8310;44.626;11.176;2024-02-15T14:55:56;43.13;;;28.33;;
16401;SDS011;8310;44.626;11.176;2024-02-15T14:58:24;40.27;;;28.03;;
16401;SDS011;8310;44.626;11.176;2024-02-15T15:00:52;41.42;;;29.00;;
16401;SDS011;8310;44.626;11.176;2024-02-15T15:03:19;46.22;;;30.17;;
16401;SDS011;8310;44.626;11.176;2024-02-15T15:05:48;43.55;;;30.60;;
16401;SDS011;8310;44.626;11.176;2024-02-15T15:08:34;43.80;;;30.35;;
16401;SDS011;8310;44.626;11.176;2024-02-15T15:11:19;43.72;;;30.05;;
16401;SDS011;8310;44.626;11.176;2024-02-15T15:14:04;39.88;;;28.48;;
16401;SDS011;8310;44.626;11.176;2024-02-15T15:16:32;43.33;;;29.02;;
16401;SDS011;8310;44.626;11.176;2024-02-15T15:19:00;42.90;;;27.88;;
16401;SDS011;8310;44.626;11.176;2024-02-15T15:21:28;40.72;;;28.35;;
16401;SDS011;8310;44.626;11.176;2024-02-15T15:23:57;46.67;;;30.35;;
16401;SDS011;8310;44.626;11.176;2024-02-15T15:26:24;44.80;;;31.02;;
16401;SDS011;8310;44.626;11.176;2024-02-15T15:28:52;42.50;;;30.33;;
16401;SDS011;8310;44.626;11.176;2024-02-15T15:31:20;43.47;;;31.20;;
16401;SDS011;8310;44.626;11.176;2024-02-15T15:33:48;46.00;;;31.88;;
16401;SDS011;8310;44.626;11.176;2024-02-15T15:36:15;43.72;;;30.58;;
16401;SDS011;8310;44.626;11.176;2024-02-15T15:38:44;43.87;;;29.47;;
16401;SDS011;8310;44.626;11.176;2024-02-15T15:41:13;40.67;;;27.93;;
16401;SDS011;8310;44.626;11.176;2024-02-15T15:43:42;42.53;;;28.05;;
16401;SDS011;8310;44.626;11.176;2024-02-15T15:46:12;42.83;;;29.02;;
16401;SDS011;8310;44.626;11.176;2024-02-15T15:48:52;41.60;;;28.88;;
16401;SDS011;8310;44.626;11.176;2024-02-15T15:51:19;46.60;;;29.77;;
16401;SDS011;8310;44.626;11.176;2024-02-15T15:53:47;41.97;;;29.35;;
16401;SDS011;8310;44.626;11.176;2024-02-15T15:56:17;45.70;;;30.30;;
16401;SDS011;8310;44.626;11.176;2024-02-15T15:58:46;43.78;;;29.73;;
16401;SDS011;8310;44.626;11.176;2024-02-15T16:01:14;41.65;;;30.17;;
16401;SDS011;8310;44.626;11.176;2024-02-15T16:03:42;43.13;;;30.75;;
16401;SDS011;8310;44.626;11.176;2024-02-15T16:06:11;49.17;;;32.35;;
16401;SDS011;8310;44.626;11.176;2024-02-15T16:08:40;44.47;;;31.27;;
16401;SDS011;8310;44.626;11.176;2024-02-15T16:11:08;43.40;;;29.70;;
16401;SDS011;8310;44.626;11.176;2024-02-15T16:13:40;42.17;;;29.30;;
16401;SDS011;8310;44.626;11.176;2024-02-15T16:16:08;43.17;;;29.70;;
16401;SDS011;8310;44.626;11.176;2024-02-15T16:18:36;46.08;;;29.10;;
16401;SDS011;8310;44.626;11.176;2024-02-15T16:21:03;43.80;;;30.60;;
16401;SDS011;8310;44.626;11.176;2024-02-15T16:23:31;46.05;;;29.90;;
16401;SDS011;8310;44.626;11.176;2024-02-15T16:25:59;44.35;;;28.95;;
16401;SDS011;8310;44.626;11.176;2024-02-15T16:28:27;43.17;;;30.17;;
16401;SDS011;8310;44.626;11.176;2024-02-15T16:30:56;43.25;;;28.70;;
16401;SDS011;8310;44.626;11.176;2024-02-15T16:33:25;45.55;;;31.52;;
16401;SDS011;8310;44.626;11.176;2024-02-15T16:35:52;48.47;;;32.00;;
16401;SDS011;8310;44.626;11.176;2024-02-15T16:38:22;47.38;;;30.13;;
16401;SDS011;8310;44.626;11.176;2024-02-15T16:40:50;43.83;;;29.43;;
16401;SDS011;8310;44.626;11.176;2024-02-15T16:43:18;44.78;;;30.15;;
16401;SDS011;8310;44.626;11.176;2024-02-15T16:45:46;47.95;;;30.77;;
16401;SDS011;8310;44.626;11.176;2024-02-15T16:48:16;51.40;;;34.53;;
16401;SDS011;8310;44.626;11.176;2024-02-15T16:50:43;48.38;;;32.60;;
16401;SDS011;8310;44.626;11.176;2024-02-15T16:53:12;50.15;;;33.83;;
16401;SDS011;8310;44.626;11.176;2024-02-15T16:55:42;53.97;;;33.88;;
16401;SDS011;8310;44.626;11.176;2024-02-15T16:58:10;53.38;;;35.40;;
16401;SDS011;8310;44.626;11.176;2024-02-15T17:00:38;56.17;;;37.08;;
16401;SDS011;8310;44.626;11.176;2024-02-15T17:03:05;57.65;;;38.40;;
16401;SDS011;8310;44.626;11.176;2024-02-15T17:05:36;59.85;;;40.47;;
16401;SDS011;8310;44.626;11.176;2024-02-15T17:08:06;56.33;;;39.23;;
16401;SDS011;8310;44.626;11.176;2024-02-15T17:10:35;59.15;;;38.80;;
16401;SDS011;8310;44.626;11.176;2024-02-15T17:13:02;56.03;;;39.15;;
16401;SDS011;8310;44.626;11.176;2024-02-15T17:15:31;57.83;;;39.22;;
16401;SDS011;8310;44.626;11.176;2024-02-15T17:17:59;59.28;;;40.08;;
16401;SDS011;8310;44.626;11.176;2024-02-15T17:20:27;63.15;;;42.97;;
16401;SDS011;8310;44.626;11.176;2024-02-15T17:22:57;62.03;;;42.10;;
16401;SDS011;8310;44.626;11.176;2024-02-15T17:25:24;59.65;;;40.53;;
16401;SDS011;8310;44.626;11.176;2024-02-15T17:27:52;61.95;;;42.85;;
16401;SDS011;8310;44.626;11.176;2024-02-15T17:30:22;65.80;;;42.45;;
16401;SDS011;8310;44.626;11.176;2024-02-15T17:32:50;65.22;;;44.60;;
16401;SDS011;8310;44.626;11.176;2024-02-15T17:35:18;66.22;;;45.63;;
16401;SDS011;8310;44.626;11.176;2024-02-15T17:37:45;70.77;;;46.87;;
16401;SDS011;8310;44.626;11.176;2024-02-15T17:40:15;74.22;;;52.03;;
16401;SDS011;8310;44.626;11.176;2024-02-15T17:42:43;76.07;;;50.20;;
16401;SDS011;8310;44.626;11.176;2024-02-15T17:45:11;71.35;;;49.35;;
16401;SDS011;8310;44.626;11.176;2024-02-15T17:47:40;76.53;;;51.53;;
16401;SDS011;8310;44.626;11.176;2024-02-15T17:50:10;83.28;;;56.30;;
16401;SDS011;8310;44.626;11.176;2024-02-15T17:52:39;80.45;;;55.95;;
16401;SDS011;8310;44.626;11.176;2024-02-15T17:55:08;91.10;;;55.08;;
16401;SDS011;8310;44.626;11.176;2024-02-15T17:57:37;82.93;;;54.17;;
16401;SDS011;8310;44.626;11.176;2024-02-15T18:00:06;87.10;;;58.00;;
16401;SDS011;8310;44.626;11.176;2024-02-15T18:02:38;80.50;;;53.67;;
16401;SDS011;8310;44.626;11.176;2024-02-15T18:05:06;80.00;;;52.70;;
16401;SDS011;8310;44.626;11.176;2024-02-15T18:07:36;93.03;;;51.60;;
16401;SDS011;8310;44.626;11.176;2024-02-15T18:10:05;105.30;;;49.87;;
16401;SDS011;8310;44.626;11.176;2024-02-15T18:12:38;81.90;;;48.47;;
16401;SDS011;8310;44.626;11.176;2024-02-15T18:15:06;79.33;;;48.33;;
16401;SDS011;8310;44.626;11.176;2024-02-15T18:17:38;73.22;;;48.25;;
16401;SDS011;8310;44.626;11.176;2024-02-15T18:20:10;71.43;;;48.40;;
16401;SDS011;8310;44.626;11.176;2024-02-15T18:22:40;71.20;;;49.13;;
16401;SDS011;8310;44.626;11.176;2024-02-15T18:25:09;70.95;;;48.10;;
16401;SDS011;8310;44.626;11.176;2024-02-15T18:27:38;70.32;;;47.42;;
16401;SDS011;8310;44.626;11.176;2024-02-15T18:30:07;73.07;;;50.53;;
16401;SDS011;8310;44.626;11.176;2024-02-15T18:32:36;70.47;;;49.53;;
16401;SDS011;8310;44.626;11.176;2024-02-15T18:35:04;76.57;;;49.35;;
16401;SDS011;8310;44.626;11.176;2024-02-15T18:37:35;72.75;;;49.22;;
16401;SDS011;8310;44.626;11.176;2024-02-15T18:40:06;71.40;;;50.38;;
16401;SDS011;8310;44.626;11.176;2024-02-15T18:42:34;74.13;;;50.47;;
16401;SDS011;8310;44.626;11.176;2024-02-15T18:45:05;73.00;;;48.42;;
16401;SDS011;8310;44.626;11.176;2024-02-15T18:47:33;75.32;;;50.85;;
16401;SDS011;8310;44.626;11.176;2024-02-15T18:50:03;74.28;;;50.17;;
16401;SDS011;8310;44.626;11.176;2024-02-15T18:52:34;72.82;;;49.28;;
16401;SDS011;8310;44.626;11.176;2024-02-15T18:55:01;71.80;;;48.23;;
16401;SDS011;8310;44.626;11.176;2024-02-15T18:57:31;71.22;;;47.40;;
16401;SDS011;8310;44.626;11.176;2024-02-15T18:59:59;70.80;;;47.00;;
16401;SDS011;8310;44.626;11.176;2024-02-15T19:02:28;68.63;;;47.85;;
16401;SDS011;8310;44.626;11.176;2024-02-15T19:04:56;72.35;;;48.30;;
16401;SDS011;8310;44.626;11.176;2024-02-15T19:07:27;72.93;;;48.63;;
16401;SDS011;8310;44.626;11.176;2024-02-15T19:09:55;72.95;;;47.45;;
16401;SDS011;8310;44.626;11.176;2024-02-15T19:12:23;69.63;;;48.90;;
16401;SDS011;8310;44.626;11.176;2024-02-15T19:14:51;66.70;;;46.90;;
16401;SDS011;8310;44.626;11.176;2024-02-15T19:17:20;70.72;;;48.60;;
16401;SDS011;8310;44.626;11.176;2024-02-15T19:19:51;70.63;;;48.25;;
16401;SDS011;8310;44.626;11.176;2024-02-15T19:22:19;73.05;;;47.83;;
16401;SDS011;8310;44.626;11.176;2024-02-15T19:24:57;70.40;;;48.40;;
16401;SDS011;8310;44.626;11.176;2024-02-15T19:27:25;69.93;;;47.25;;
16401;SDS011;8310;44.626;11.176;2024-02-15T19:29:53;74.70;;;49.60;;
16401;SDS011;8310;44.626;11.176;2024-02-15T19:32:21;74.50;;;48.10;;
16401;SDS011;8310;44.626;11.176;2024-02-15T19:34:49;75.90;;;50.37;;
16401;SDS011;8310;44.626;11.176;2024-02-15T19:37:20;74.43;;;50.95;;
16401;SDS011;8310;44.626;11.176;2024-02-15T19:39:49;75.43;;;49.90;;
16401;SDS011;8310;44.626;11.176;2024-02-15T19:42:17;74.93;;;50.35;;
16401;SDS011;8310;44.626;11.176;2024-02-15T19:44:45;79.32;;;50.88;;
16401;SDS011;8310;44.626;11.176;2024-02-15T19:47:14;70.97;;;47.95;;
16401;SDS011;8310;44.626;11.176;2024-02-15T19:49:43;68.80;;;47.53;;
16401;SDS011;8310;44.626;11.176;2024-02-15T19:52:12;71.80;;;47.45;;
16401;SDS011;8310;44.626;11.176;2024-02-15T19:54:42;71.53;;;50.00;;
16401;SDS011;8310;44.626;11.176;2024-02-15T19:57:10;72.43;;;46.28;;
16401;SDS011;8310;44.626;11.176;2024-02-15T19:59:38;71.47;;;46.63;;
16401;SDS011;8310;44.626;11.176;2024-02-15T20:02:06;68.68;;;45.70;;
16401;SDS011;8310;44.626;11.176;2024-02-15T20:04:34;64.65;;;44.35;;
16401;SDS011;8310;44.626;11.176;2024-02-15T20:07:02;64.10;;;44.22;;
16401;SDS011;8310;44.626;11.176;2024-02-15T20:09:30;62.90;;;44.00;;
16401;SDS011;8310;44.626;11.176;2024-02-15T20:12:00;67.72;;;45.28;;
16401;SDS011;8310;44.626;11.176;2024-02-15T20:14:28;70.43;;;46.05;;
16401;SDS011;8310;44.626;11.176;2024-02-15T20:16:55;63.53;;;43.67;;
16401;SDS011;8310;44.626;11.176;2024-02-15T20:19:23;65.97;;;46.03;;
16401;SDS011;8310;44.626;11.176;2024-02-15T20:21:54;72.07;;;46.00;;
16401;SDS011;8310;44.626;11.176;2024-02-15T20:24:22;67.45;;;45.00;;
16401;SDS011;8310;44.626;11.176;2024-02-15T20:26:50;66.70;;;44.72;;
16401;SDS011;8310;44.626;11.176;2024-02-15T20:29:20;70.78;;;44.40;;
16401;SDS011;8310;44.626;11.176;2024-02-15T20:31:49;68.72;;;43.63;;